sensor_id;sensor_type;location;lat;lon;timestamp;temperature;humidity
11511;DHT22;5812;48.864;9.190;2023-02-15T00:00:19;-1.20;99.90
11511;DHT22;5812;48.864;9.190;2023-02-15T00:02:45;-1.20;99.90
11511;DHT22;5812;48.864;9.190;2023-02-15T00:05:10;-1.20;99.90
11511;DHT22;5812;48.864;9.190;2023-02-15T00:07:36;-1.30;99.90
11511;DHT22;5812;48.864;9.190;2023-02-15T00:10:02;-1.20;99.90
11511;DHT22;5812;48.864;9.190;2023-02-15T00:12:27;-1.30;99.90
11511;DHT22;5812;48.864;9.190;2023-02-15T00:14:53;-1.20;99.90
11511;DHT22;5812;48.864;9.190;2023-02-15T00:17:19;-1.20;99.90
11511;DHT22;5812;48.864;9.190;2023-02-15T00:19:44;-1.20;99.90
11511;DHT22;5812;48.864;9.190;2023-02-15T00:22:10;-1.30;99.90
11511;DHT22;5812;48.864;9.190;2023-02-15T00:24:35;-1.30;99.90
11511;DHT22;5812;48.864;9.190;2023-02-15T00:27:01;-1.40;99.90
11511;DHT22;5812;48.864;9.190;2023-02-15T00:29:27;-1.40;99.90
11511;DHT22;5812;48.864;9.190;2023-02-15T00:31:53;-1.40;99.90
11511;DHT22;5812;48.864;9.190;2023-02-15T00:34:24;-1.40;99.90
11511;DHT22;5812;48.864;9.190;2023-02-15T00:36:50;-1.30;99.90
11511;DHT22;5812;48.864;9.190;2023-02-15T00:39:16;-1.40;99.90
11511;DHT22;5812;48.864;9.190;2023-02-15T00:41:42;-1.30;99.90
11511;DHT22;5812;48.864;9.190;2023-02-15T00:44:08;-1.50;99.90
11511;DHT22;5812;48.864;9.190;2023-02-15T00:46:35;-1.50;99.90
11511;DHT22;5812;48.864;9.190;2023-02-15T00:49:01;-1.40;99.90
11511;DHT22;5812;48.864;9.190;2023-02-15T00:51:27;-1.40;99.90
11511;DHT22;5812;48.864;9.190;2023-02-15T00:53:52;-1.40;99.90
11511;DHT22;5812;48.864;9.190;2023-02-15T00:56:18;-1.40;99.90
11511;DHT22;5812;48.864;9.190;2023-02-15T00:58:44;-1.40;99.90
11511;DHT22;5812;48.864;9.190;2023-02-15T01:01:12;-1.60;99.90
11511;DHT22;5812;48.864;9.190;2023-02-15T01:03:38;-1.60;99.90
11511;DHT22;5812;48.864;9.190;2023-02-15T01:06:04;-1.60;99.90
11511;DHT22;5812;48.864;9.190;2023-02-15T01:08:30;-1.40;99.90
11511;DHT22;5812;48.864;9.190;2023-02-15T01:10:56;-1.60;99.90
11511;DHT22;5812;48.864;9.190;2023-02-15T01:13:22;-1.60;99.90
11511;DHT22;5812;48.864;9.190;2023-02-15T01:15:54;-1.50;99.90
11511;DHT22;5812;48.864;9.190;2023-02-15T01:18:20;-1.50;99.90
11511;DHT22;5812;48.864;9.190;2023-02-15T01:20:46;-1.60;99.90
11511;DHT22;5812;48.864;9.190;2023-02-15T01:23:13;-1.70;99.90
11511;DHT22;5812;48.864;9.190;2023-02-15T01:25:38;-1.60;99.90
11511;DHT22;5812;48.864;9.190;2023-02-15T01:28:04;-1.50;99.90
11511;DHT22;5812;48.864;9.190;2023-02-15T01:30:30;-1.50;99.90
11511;DHT22;5812;48.864;9.190;2023-02-15T01:32:56;-1.60;99.90
11511;DHT22;5812;48.864;9.190;2023-02-15T01:35:21;-1.60;99.90
11511;DHT22;5812;48.864;9.190;2023-02-15T01:37:47;-1.60;99.90
11511;DHT22;5812;48.864;9.190;2023-02-15T01:40:16;-1.50;99.90
11511;DHT22;5812;48.864;9.190;2023-02-15T01:42:43;-1.70;99.90
11511;DHT22;5812;48.864;9.190;2023-02-15T01:45:30;-1.60;99.90
11511;DHT22;5812;48.864;9.190;2023-02-15T01:48:14;-1.70;99.90
11511;DHT22;5812;48.864;9.190;2023-02-15T01:50:54;-1.70;99.90
11511;DHT22;5812;48.864;9.190;2023-02-15T01:53:52;-1.70;99.90
11511;DHT22;5812;48.864;9.190;2023-02-15T01:56:24;-1.50;99.90
11511;DHT22;5812;48.864;9.190;2023-02-15T01:58:54;-1.60;99.90
11511;DHT22;5812;48.864;9.190;2023-02-15T02:01:20;-1.60;99.90
11511;DHT22;5812;48.864;9.190;2023-02-15T02:03:57;-1.70;99.90
11511;DHT22;5812;48.864;9.190;2023-02-15T02:06:25;-1.80;99.90
11511;DHT22;5812;48.864;9.190;2023-02-15T02:08:52;-1.80;99.90
11511;DHT22;5812;48.864;9.190;2023-02-15T02:11:18;-1.90;99.90
11511;DHT22;5812;48.864;9.190;2023-02-15T02:13:45;-1.90;99.90
11511;DHT22;5812;48.864;9.190;2023-02-15T02:32:52;-1.70;99.90
11511;DHT22;5812;48.864;9.190;2023-02-15T02:35:54;-1.70;99.90
11511;DHT22;5812;48.864;9.190;2023-02-15T02:41:17;-1.80;99.90
11511;DHT22;5812;48.864;9.190;2023-02-15T02:44:04;-1.90;99.90
11511;DHT22;5812;48.864;9.190;2023-02-15T02:49:36;-1.50;99.90
11511;DHT22;5812;48.864;9.190;2023-02-15T02:52:04;-1.60;99.90
11511;DHT22;5812;48.864;9.190;2023-02-15T02:54:31;-1.60;99.90
11511;DHT22;5812;48.864;9.190;2023-02-15T02:57:01;-1.60;99.90
11511;DHT22;5812;48.864;9.190;2023-02-15T02:59:36;-1.60;99.90
11511;DHT22;5812;48.864;9.190;2023-02-15T03:02:10;-1.60;99.90
11511;DHT22;5812;48.864;9.190;2023-02-15T03:04:41;-1.60;99.90
11511;DHT22;5812;48.864;9.190;2023-02-15T03:07:13;-1.60;99.90
11511;DHT22;5812;48.864;9.190;2023-02-15T03:09:46;-1.60;99.90
11511;DHT22;5812;48.864;9.190;2023-02-15T03:12:23;-1.60;99.90
11511;DHT22;5812;48.864;9.190;2023-02-15T03:14:55;-1.70;99.90
11511;DHT22;5812;48.864;9.190;2023-02-15T03:17:26;-1.70;99.90
11511;DHT22;5812;48.864;9.190;2023-02-15T03:19:56;-1.70;99.90
11511;DHT22;5812;48.864;9.190;2023-02-15T03:22:36;-1.70;99.90
11511;DHT22;5812;48.864;9.190;2023-02-15T03:25:13;-1.70;99.90
11511;DHT22;5812;48.864;9.190;2023-02-15T03:27:43;-1.20;99.90
11511;DHT22;5812;48.864;9.190;2023-02-15T03:30:11;-1.70;99.90
11511;DHT22;5812;48.864;9.190;2023-02-15T03:32:39;-1.60;99.90
11511;DHT22;5812;48.864;9.190;2023-02-15T03:35:07;-1.60;99.90
11511;DHT22;5812;48.864;9.190;2023-02-15T03:37:35;-1.60;99.90
11511;DHT22;5812;48.864;9.190;2023-02-15T03:45:33;-1.50;99.90
11511;DHT22;5812;48.864;9.190;2023-02-15T03:48:00;-1.60;99.90
11511;DHT22;5812;48.864;9.190;2023-02-15T03:50:31;-1.60;99.90
11511;DHT22;5812;48.864;9.190;2023-02-15T03:53:19;-1.60;99.90
11511;DHT22;5812;48.864;9.190;2023-02-15T03:55:47;-1.70;99.90
11511;DHT22;5812;48.864;9.190;2023-02-15T03:58:13;-1.80;99.90
11511;DHT22;5812;48.864;9.190;2023-02-15T04:04:15;-1.70;99.90
11511;DHT22;5812;48.864;9.190;2023-02-15T04:06:43;-1.70;99.90
11511;DHT22;5812;48.864;9.190;2023-02-15T04:09:09;-1.60;99.90
11511;DHT22;5812;48.864;9.190;2023-02-15T04:11:53;-1.60;99.90
11511;DHT22;5812;48.864;9.190;2023-02-15T04:14:18;-1.60;99.90
11511;DHT22;5812;48.864;9.190;2023-02-15T04:17:06;-1.70;99.90
11511;DHT22;5812;48.864;9.190;2023-02-15T04:19:32;-1.60;99.90
11511;DHT22;5812;48.864;9.190;2023-02-15T04:22:16;-1.70;99.90
11511;DHT22;5812;48.864;9.190;2023-02-15T04:25:00;-1.70;99.90
11511;DHT22;5812;48.864;9.190;2023-02-15T04:27:51;-1.70;99.90
11511;DHT22;5812;48.864;9.190;2023-02-15T04:30:20;-1.70;99.90
11511;DHT22;5812;48.864;9.190;2023-02-15T04:32:46;-1.70;99.90
11511;DHT22;5812;48.864;9.190;2023-02-15T04:35:12;-1.80;99.90
11511;DHT22;5812;48.864;9.190;2023-02-15T04:37:39;-1.80;99.90
11511;DHT22;5812;48.864;9.190;2023-02-15T04:40:06;-1.80;99.90
11511;DHT22;5812;48.864;9.190;2023-02-15T04:42:32;-1.70;99.90
11511;DHT22;5812;48.864;9.190;2023-02-15T04:44:58;-1.80;99.90
11511;DHT22;5812;48.864;9.190;2023-02-15T04:47:24;-1.80;99.90
11511;DHT22;5812;48.864;9.190;2023-02-15T04:49:49;-1.80;99.90
11511;DHT22;5812;48.864;9.190;2023-02-15T04:52:15;-1.70;99.90
11511;DHT22;5812;48.864;9.190;2023-02-15T04:54:43;-1.70;99.90
11511;DHT22;5812;48.864;9.190;2023-02-15T04:57:09;-1.60;99.90
11511;DHT22;5812;48.864;9.190;2023-02-15T05:02:00;-1.70;99.90
11511;DHT22;5812;48.864;9.190;2023-02-15T05:04:26;-1.60;99.90
11511;DHT22;5812;48.864;9.190;2023-02-15T05:06:51;-1.60;99.90
11511;DHT22;5812;48.864;9.190;2023-02-15T05:09:17;-1.50;99.90
11511;DHT22;5812;48.864;9.190;2023-02-15T05:11:43;-1.60;99.90
11511;DHT22;5812;48.864;9.190;2023-02-15T05:14:09;-1.60;99.90
11511;DHT22;5812;48.864;9.190;2023-02-15T05:16:34;-1.60;99.90
11511;DHT22;5812;48.864;9.190;2023-02-15T05:19:00;-1.60;99.90
11511;DHT22;5812;48.864;9.190;2023-02-15T05:21:26;-1.70;99.90
11511;DHT22;5812;48.864;9.190;2023-02-15T05:23:51;-1.60;99.90
11511;DHT22;5812;48.864;9.190;2023-02-15T05:26:20;-1.60;99.90
11511;DHT22;5812;48.864;9.190;2023-02-15T05:29:05;-1.60;99.90
11511;DHT22;5812;48.864;9.190;2023-02-15T05:31:31;-1.60;99.90
11511;DHT22;5812;48.864;9.190;2023-02-15T05:33:57;-1.60;99.90
11511;DHT22;5812;48.864;9.190;2023-02-15T05:36:23;-1.60;99.90
11511;DHT22;5812;48.864;9.190;2023-02-15T05:38:48;-1.60;99.90
11511;DHT22;5812;48.864;9.190;2023-02-15T05:41:14;-1.60;99.90
11511;DHT22;5812;48.864;9.190;2023-02-15T05:43:40;-1.70;99.90
11511;DHT22;5812;48.864;9.190;2023-02-15T05:46:06;-1.70;99.90
11511;DHT22;5812;48.864;9.190;2023-02-15T05:48:32;-1.70;99.90
11511;DHT22;5812;48.864;9.190;2023-02-15T05:51:04;-1.60;99.90
11511;DHT22;5812;48.864;9.190;2023-02-15T05:53:31;-1.70;99.90
11511;DHT22;5812;48.864;9.190;2023-02-15T05:55:57;-1.70;99.90
11511;DHT22;5812;48.864;9.190;2023-02-15T05:58:28;-1.70;99.90
11511;DHT22;5812;48.864;9.190;2023-02-15T06:00:54;-1.80;99.90
11511;DHT22;5812;48.864;9.190;2023-02-15T06:03:21;-1.80;99.90
11511;DHT22;5812;48.864;9.190;2023-02-15T06:05:47;-1.80;99.90
11511;DHT22;5812;48.864;9.190;2023-02-15T06:08:12;-1.80;99.90
11511;DHT22;5812;48.864;9.190;2023-02-15T06:10:38;-1.70;99.90
11511;DHT22;5812;48.864;9.190;2023-02-15T06:13:05;-1.80;99.90
11511;DHT22;5812;48.864;9.190;2023-02-15T06:15:31;-1.80;99.90
11511;DHT22;5812;48.864;9.190;2023-02-15T06:17:57;-1.80;99.90
11511;DHT22;5812;48.864;9.190;2023-02-15T06:20:22;-1.80;99.90
11511;DHT22;5812;48.864;9.190;2023-02-15T06:22:48;-1.80;99.90
11511;DHT22;5812;48.864;9.190;2023-02-15T06:25:13;-1.80;99.90
11511;DHT22;5812;48.864;9.190;2023-02-15T06:27:41;-1.80;99.90
11511;DHT22;5812;48.864;9.190;2023-02-15T06:30:08;-1.80;99.90
11511;DHT22;5812;48.864;9.190;2023-02-15T06:32:34;-1.70;99.90
11511;DHT22;5812;48.864;9.190;2023-02-15T06:34:59;-1.70;99.90
11511;DHT22;5812;48.864;9.190;2023-02-15T06:37:25;-1.70;99.90
11511;DHT22;5812;48.864;9.190;2023-02-15T06:39:50;-1.60;99.90
11511;DHT22;5812;48.864;9.190;2023-02-15T06:42:16;-1.60;99.90
11511;DHT22;5812;48.864;9.190;2023-02-15T06:44:43;-1.60;99.90
11511;DHT22;5812;48.864;9.190;2023-02-15T06:47:09;-1.60;99.90
11511;DHT22;5812;48.864;9.190;2023-02-15T06:49:36;-1.60;99.90
11511;DHT22;5812;48.864;9.190;2023-02-15T06:52:02;-1.60;99.90
11511;DHT22;5812;48.864;9.190;2023-02-15T06:54:27;-1.60;99.90
11511;DHT22;5812;48.864;9.190;2023-02-15T06:56:53;-1.60;99.90
11511;DHT22;5812;48.864;9.190;2023-02-15T06:59:18;-1.60;99.90
11511;DHT22;5812;48.864;9.190;2023-02-15T07:01:44;-1.70;99.90
11511;DHT22;5812;48.864;9.190;2023-02-15T07:04:09;-1.80;99.90
11511;DHT22;5812;48.864;9.190;2023-02-15T07:06:35;-1.70;99.90
11511;DHT22;5812;48.864;9.190;2023-02-15T07:09:01;-1.80;99.90
11511;DHT22;5812;48.864;9.190;2023-02-15T07:11:27;-1.80;99.90
11511;DHT22;5812;48.864;9.190;2023-02-15T07:14:11;-1.80;99.90
11511;DHT22;5812;48.864;9.190;2023-02-15T07:16:38;-1.70;99.90
11511;DHT22;5812;48.864;9.190;2023-02-15T07:19:03;-1.60;99.90
11511;DHT22;5812;48.864;9.190;2023-02-15T07:21:29;-1.70;99.90
11511;DHT22;5812;48.864;9.190;2023-02-15T07:23:58;-1.60;99.90
11511;DHT22;5812;48.864;9.190;2023-02-15T07:26:24;-1.50;99.90
11511;DHT22;5812;48.864;9.190;2023-02-15T07:28:49;-1.50;99.90
11511;DHT22;5812;48.864;9.190;2023-02-15T07:31:15;-1.50;99.90
11511;DHT22;5812;48.864;9.190;2023-02-15T07:33:40;-1.50;99.90
11511;DHT22;5812;48.864;9.190;2023-02-15T07:36:07;-1.50;99.90
11511;DHT22;5812;48.864;9.190;2023-02-15T07:38:36;-1.40;99.90
11511;DHT22;5812;48.864;9.190;2023-02-15T07:41:04;-1.40;99.90
11511;DHT22;5812;48.864;9.190;2023-02-15T07:43:33;-1.50;99.90
11511;DHT22;5812;48.864;9.190;2023-02-15T07:46:00;-1.40;99.90
11511;DHT22;5812;48.864;9.190;2023-02-15T07:48:26;-1.40;99.90
11511;DHT22;5812;48.864;9.190;2023-02-15T07:50:52;-1.30;99.90
11511;DHT22;5812;48.864;9.190;2023-02-15T07:53:18;-1.30;99.90
11511;DHT22;5812;48.864;9.190;2023-02-15T07:55:43;-1.30;99.90
11511;DHT22;5812;48.864;9.190;2023-02-15T07:58:09;-1.20;99.90
11511;DHT22;5812;48.864;9.190;2023-02-15T08:00:35;-1.20;99.90
11511;DHT22;5812;48.864;9.190;2023-02-15T08:03:25;-1.30;91.90
11511;DHT22;5812;48.864;9.190;2023-02-15T08:05:56;-1.30;99.90
11511;DHT22;5812;48.864;9.190;2023-02-15T08:08:22;-1.10;99.90
11511;DHT22;5812;48.864;9.190;2023-02-15T08:10:59;-1.10;99.90
11511;DHT22;5812;48.864;9.190;2023-02-15T08:13:45;-1.30;99.90
11511;DHT22;5812;48.864;9.190;2023-02-15T08:16:24;-1.00;99.90
11511;DHT22;5812;48.864;9.190;2023-02-15T08:18:51;-0.80;99.90
11511;DHT22;5812;48.864;9.190;2023-02-15T08:21:17;-0.70;99.90
11511;DHT22;5812;48.864;9.190;2023-02-15T08:23:43;-0.50;99.90
11511;DHT22;5812;48.864;9.190;2023-02-15T08:26:09;-0.50;65.30
11511;DHT22;5812;48.864;9.190;2023-02-15T08:28:34;-0.80;1.00
11511;DHT22;5812;48.864;9.190;2023-02-15T08:31:05;-0.80;21.00
11511;DHT22;5812;48.864;9.190;2023-02-15T08:33:30;-0.60;22.30
11511;DHT22;5812;48.864;9.190;2023-02-15T08:35:56;-0.70;9.80
11511;DHT22;5812;48.864;9.190;2023-02-15T08:38:21;-0.70;36.60
11511;DHT22;5812;48.864;9.190;2023-02-15T08:40:47;-0.70;47.90
11511;DHT22;5812;48.864;9.190;2023-02-15T08:43:13;-0.60;70.60
11511;DHT22;5812;48.864;9.190;2023-02-15T08:45:38;-0.60;3.30
11511;DHT22;5812;48.864;9.190;2023-02-15T08:48:04;-0.60;66.90
11511;DHT22;5812;48.864;9.190;2023-02-15T08:50:29;-0.40;78.70
11511;DHT22;5812;48.864;9.190;2023-02-15T08:52:56;-0.40;71.70
11511;DHT22;5812;48.864;9.190;2023-02-15T08:55:21;-0.40;73.60
11511;DHT22;5812;48.864;9.190;2023-02-15T08:57:47;-0.30;25.30
11511;DHT22;5812;48.864;9.190;2023-02-15T09:00:13;-0.10;54.10
11511;DHT22;5812;48.864;9.190;2023-02-15T09:02:39;0.00;1.00
11511;DHT22;5812;48.864;9.190;2023-02-15T09:05:05;-0.40;1.00
11511;DHT22;5812;48.864;9.190;2023-02-15T09:07:30;-0.40;1.00
11511;DHT22;5812;48.864;9.190;2023-02-15T09:09:56;-0.20;66.30
11511;DHT22;5812;48.864;9.190;2023-02-15T09:12:21;0.20;89.60
11511;DHT22;5812;48.864;9.190;2023-02-15T09:14:47;0.40;1.00
11511;DHT22;5812;48.864;9.190;2023-02-15T09:17:12;0.60;1.00
11511;DHT22;5812;48.864;9.190;2023-02-15T09:19:38;0.50;99.90
11511;DHT22;5812;48.864;9.190;2023-02-15T09:22:04;0.40;99.90
11511;DHT22;5812;48.864;9.190;2023-02-15T09:24:32;0.80;1.00
11511;DHT22;5812;48.864;9.190;2023-02-15T09:26:59;1.00;99.90
11511;DHT22;5812;48.864;9.190;2023-02-15T09:29:24;1.30;99.90
11511;DHT22;5812;48.864;9.190;2023-02-15T09:31:50;1.50;99.90
11511;DHT22;5812;48.864;9.190;2023-02-15T09:34:18;1.90;90.10
11511;DHT22;5812;48.864;9.190;2023-02-15T09:36:44;1.90;1.00
11511;DHT22;5812;48.864;9.190;2023-02-15T09:39:11;1.90;1.00
11511;DHT22;5812;48.864;9.190;2023-02-15T09:52:48;2.60;1.00
11511;DHT22;5812;48.864;9.190;2023-02-15T10:09:31;2.50;99.90
11511;DHT22;5812;48.864;9.190;2023-02-15T10:28:12;4.10;99.90
11511;DHT22;5812;48.864;9.190;2023-02-15T10:31:09;4.60;99.90
11511;DHT22;5812;48.864;9.190;2023-02-15T10:33:42;5.10;93.60
11511;DHT22;5812;48.864;9.190;2023-02-15T10:41:58;5.50;37.90
11511;DHT22;5812;48.864;9.190;2023-02-15T10:48:13;6.30;1.00
11511;DHT22;5812;48.864;9.190;2023-02-15T10:50:48;5.30;2.90
11511;DHT22;5812;48.864;9.190;2023-02-15T11:01:44;7.60;1.00
11511;DHT22;5812;48.864;9.190;2023-02-15T11:06:53;5.90;32.00
11511;DHT22;5812;48.864;9.190;2023-02-15T11:09:21;6.00;1.00
11511;DHT22;5812;48.864;9.190;2023-02-15T11:11:50;7.00;1.00
11511;DHT22;5812;48.864;9.190;2023-02-15T11:14:27;8.30;1.00
11511;DHT22;5812;48.864;9.190;2023-02-15T11:17:01;8.10;1.00
11511;DHT22;5812;48.864;9.190;2023-02-15T11:19:37;8.20;1.00
11511;DHT22;5812;48.864;9.190;2023-02-15T11:22:06;9.00;1.00
11511;DHT22;5812;48.864;9.190;2023-02-15T11:24:38;9.30;1.00
11511;DHT22;5812;48.864;9.190;2023-02-15T11:27:27;8.60;1.00
11511;DHT22;5812;48.864;9.190;2023-02-15T11:30:05;9.40;1.00
11511;DHT22;5812;48.864;9.190;2023-02-15T11:32:39;9.90;1.00
11511;DHT22;5812;48.864;9.190;2023-02-15T11:37:50;9.80;1.00
11511;DHT22;5812;48.864;9.190;2023-02-15T11:40:38;10.80;1.00
11511;DHT22;5812;48.864;9.190;2023-02-15T11:43:13;10.70;1.00
11511;DHT22;5812;48.864;9.190;2023-02-15T11:45:41;11.60;1.00
11511;DHT22;5812;48.864;9.190;2023-02-15T11:48:13;11.90;1.00
11511;DHT22;5812;48.864;9.190;2023-02-15T11:50:40;12.10;1.00
11511;DHT22;5812;48.864;9.190;2023-02-15T11:53:18;11.50;1.00
11511;DHT22;5812;48.864;9.190;2023-02-15T11:55:47;12.20;1.00
11511;DHT22;5812;48.864;9.190;2023-02-15T12:18:01;13.80;1.00
11511;DHT22;5812;48.864;9.190;2023-02-15T12:20:32;14.50;1.00
11511;DHT22;5812;48.864;9.190;2023-02-15T12:23:11;14.80;1.00
11511;DHT22;5812;48.864;9.190;2023-02-15T12:25:53;15.30;1.00
11511;DHT22;5812;48.864;9.190;2023-02-15T12:28:31;14.60;1.00
11511;DHT22;5812;48.864;9.190;2023-02-15T12:30:58;15.40;1.00
11511;DHT22;5812;48.864;9.190;2023-02-15T12:33:42;15.50;1.00
11511;DHT22;5812;48.864;9.190;2023-02-15T12:36:15;15.20;1.00
11511;DHT22;5812;48.864;9.190;2023-02-15T12:38:42;14.20;1.00
11511;DHT22;5812;48.864;9.190;2023-02-15T12:41:25;15.40;1.00
11511;DHT22;5812;48.864;9.190;2023-02-15T12:44:19;15.50;1.00
11511;DHT22;5812;48.864;9.190;2023-02-15T12:49:31;16.10;1.00
11511;DHT22;5812;48.864;9.190;2023-02-15T12:52:00;16.50;1.00
11511;DHT22;5812;48.864;9.190;2023-02-15T12:54:31;17.20;1.00
11511;DHT22;5812;48.864;9.190;2023-02-15T12:56:58;15.40;1.00
11511;DHT22;5812;48.864;9.190;2023-02-15T12:59:24;15.60;1.00
11511;DHT22;5812;48.864;9.190;2023-02-15T13:01:51;17.10;1.00
11511;DHT22;5812;48.864;9.190;2023-02-15T13:04:23;18.40;1.00
11511;DHT22;5812;48.864;9.190;2023-02-15T13:06:52;18.90;1.00
11511;DHT22;5812;48.864;9.190;2023-02-15T13:09:25;19.50;1.00
11511;DHT22;5812;48.864;9.190;2023-02-15T13:11:51;19.10;1.00
11511;DHT22;5812;48.864;9.190;2023-02-15T13:14:30;19.40;1.00
11511;DHT22;5812;48.864;9.190;2023-02-15T13:16:58;17.40;1.00
11511;DHT22;5812;48.864;9.190;2023-02-15T13:19:40;18.40;1.00
11511;DHT22;5812;48.864;9.190;2023-02-15T13:22:13;18.20;1.00
11511;DHT22;5812;48.864;9.190;2023-02-15T13:24:57;19.30;1.00
11511;DHT22;5812;48.864;9.190;2023-02-15T13:27:32;19.30;1.00
11511;DHT22;5812;48.864;9.190;2023-02-15T13:30:03;19.20;1.00
11511;DHT22;5812;48.864;9.190;2023-02-15T13:32:40;19.40;1.00
11511;DHT22;5812;48.864;9.190;2023-02-15T13:35:15;19.70;1.00
11511;DHT22;5812;48.864;9.190;2023-02-15T13:38:06;20.90;1.00
11511;DHT22;5812;48.864;9.190;2023-02-15T13:40:53;18.90;1.00
11511;DHT22;5812;48.864;9.190;2023-02-15T13:43:30;19.60;1.00
11511;DHT22;5812;48.864;9.190;2023-02-15T13:48:54;18.30;1.00
11511;DHT22;5812;48.864;9.190;2023-02-15T13:51:41;18.30;1.00
11511;DHT22;5812;48.864;9.190;2023-02-15T14:02:42;18.40;1.00
11511;DHT22;5812;48.864;9.190;2023-02-15T14:19:56;17.80;1.00
11511;DHT22;5812;48.864;9.190;2023-02-15T14:22:31;17.50;1.00
11511;DHT22;5812;48.864;9.190;2023-02-15T14:27:56;14.60;1.00
11511;DHT22;5812;48.864;9.190;2023-02-15T14:30:30;14.60;1.00
11511;DHT22;5812;48.864;9.190;2023-02-15T14:33:08;14.90;1.00
11511;DHT22;5812;48.864;9.190;2023-02-15T14:35:41;14.90;1.00
11511;DHT22;5812;48.864;9.190;2023-02-15T14:48:46;12.70;1.00
11511;DHT22;5812;48.864;9.190;2023-02-15T14:59:41;13.90;1.00
11511;DHT22;5812;48.864;9.190;2023-02-15T15:04:35;13.20;1.00
11511;DHT22;5812;48.864;9.190;2023-02-15T15:07:14;13.30;1.00
11511;DHT22;5812;48.864;9.190;2023-02-15T15:09:43;12.10;1.00
